createdAt,value
2023-01-21T00:01:13.863Z,99526.59
2023-01-21T00:03:41.234Z,99523.09
2023-01-21T00:06:08.694Z,99519.63
2023-01-21T00:08:35.903Z,99525.78
2023-01-21T00:11:11.535Z,99524.00
2023-01-21T00:13:38.593Z,99534.47
2023-01-21T00:16:06.032Z,99535.31
2023-01-21T00:18:33.859Z,99536.28
2023-01-21T00:21:01.111Z,99538.88
2023-01-21T00:23:28.090Z,99531.09
2023-01-21T00:26:02.428Z,99529.41
2023-01-21T00:28:30.829Z,99531.16
2023-01-21T00:31:03.033Z,99539.03
2023-01-21T00:33:31.073Z,99530.41
2023-01-21T00:36:03.244Z,99527.84
2023-01-21T00:38:30.712Z,99533.94
2023-01-21T00:41:08.550Z,99523.56
2023-01-21T00:43:35.786Z,99535.78
2023-01-21T00:46:02.751Z,99541.84
2023-01-21T00:48:29.784Z,99528.81
2023-01-21T00:51:00.686Z,99532.34
2023-01-21T00:53:29.734Z,99542.81
2023-01-21T00:56:07.965Z,99542.78
2023-01-21T00:58:35.953Z,99536.75
2023-01-21T01:01:09.051Z,99528.91
2023-01-21T01:03:37.102Z,99540.22
2023-01-21T01:06:12.598Z,99535.88
2023-01-21T01:08:39.734Z,99545.38
2023-01-21T01:11:07.032Z,99533.19
2023-01-21T01:13:35.568Z,99526.28
2023-01-21T01:16:03.553Z,99528.06
2023-01-21T01:18:33.741Z,99538.50
2023-01-21T01:21:01.097Z,99533.28
2023-01-21T01:23:28.641Z,99535.03
2023-01-21T01:25:57.062Z,99534.16
2023-01-21T01:28:23.964Z,99530.66
2023-01-21T01:30:51.190Z,99520.16
2023-01-21T01:33:19.361Z,99525.31
2023-01-21T01:35:47.440Z,99510.53
2023-01-21T01:38:16.117Z,99528.69
2023-01-21T01:40:43.202Z,99526.94
2023-01-21T01:43:18.155Z,99531.31
2023-01-21T01:45:47.443Z,99528.63
2023-01-21T01:48:22.564Z,99513.84
2023-01-21T01:50:49.912Z,99521.59
2023-01-21T01:53:18.813Z,99525.03
2023-01-21T01:55:47.277Z,99529.41
2023-01-21T01:58:16.543Z,99528.59
2023-01-21T02:00:43.799Z,99537.25
2023-01-21T02:03:30.042Z,99529.38
2023-01-21T02:05:57.275Z,99532.06
2023-01-21T02:08:24.898Z,99534.69
2023-01-21T02:10:54.053Z,99526.78
2023-01-21T02:13:20.917Z,99518.94
2023-01-21T02:16:12.359Z,99523.31
2023-01-21T02:19:08.310Z,99513.72
2023-01-21T02:21:38.183Z,99519.88
2023-01-21T02:24:20.164Z,99525.97
2023-01-21T02:27:30.424Z,99532.97
2023-01-21T02:30:17.237Z,99540.78
2023-01-21T02:33:13.688Z,99554.69
2023-01-21T02:35:58.027Z,99553.88
2023-01-21T02:38:39.392Z,99540.78
2023-01-21T02:41:46.171Z,99584.31
2023-01-21T02:44:28.268Z,99556.50
2023-01-21T02:47:19.661Z,99574.75
2023-01-21T02:49:49.378Z,99571.28
2023-01-21T02:52:21.545Z,99578.31
2023-01-21T02:54:55.557Z,99595.69
2023-01-21T02:57:39.991Z,99583.56
2023-01-21T03:00:13.364Z,99573.88
2023-01-21T03:03:17.829Z,99571.28
2023-01-21T03:06:07.775Z,99545.16
2023-01-21T03:08:42.301Z,99572.13
2023-01-21T03:11:15.958Z,99550.34
2023-01-21T03:14:19.403Z,99545.06
2023-01-21T03:16:58.967Z,99552.88
2023-01-21T03:19:50.607Z,99539.81
2023-01-21T03:22:22.208Z,99539.03
2023-01-21T03:24:51.962Z,99549.47
2023-01-21T03:27:24.792Z,99576.47
2023-01-21T03:29:58.235Z,99571.25
2023-01-21T03:32:27.606Z,99561.59
2023-01-21T03:34:56.190Z,99574.72
2023-01-21T03:37:49.272Z,99567.69
2023-01-21T03:40:20.373Z,99575.50
2023-01-21T03:42:52.803Z,99558.13
2023-01-21T03:45:36.144Z,99558.09
2023-01-21T03:48:16.650Z,99567.66
2023-01-21T03:50:52.125Z,99566.91
2023-01-21T03:53:19.665Z,99566.78
2023-01-21T03:55:49.600Z,99569.44
2023-01-21T03:58:16.660Z,99564.19
2023-01-21T04:00:43.914Z,99565.94
2023-01-21T04:03:10.914Z,99551.94
2023-01-21T04:05:38.060Z,99551.94
2023-01-21T04:08:04.989Z,99584.97
2023-01-21T04:10:32.107Z,99576.28
2023-01-21T04:12:59.154Z,99574.50
2023-01-21T04:15:26.242Z,99587.63
2023-01-21T04:17:53.266Z,99582.44
2023-01-21T04:20:20.241Z,99594.56
2023-01-21T04:22:47.154Z,99584.13
2023-01-21T04:25:14.087Z,99584.16
2023-01-21T04:27:41.276Z,99580.63
2023-01-21T04:30:08.806Z,99563.22
2023-01-21T04:32:37.355Z,99564.97
2023-01-21T04:35:04.606Z,99581.47
2023-01-21T04:37:31.569Z,99583.31
2023-01-21T04:39:58.702Z,99586.72
2023-01-21T04:42:25.830Z,99590.25
2023-01-21T04:44:52.772Z,99585.88
2023-01-21T04:47:19.630Z,99591.91
2023-01-21T04:49:48.924Z,99593.59
2023-01-21T04:52:15.983Z,99602.38
2023-01-21T04:54:43.253Z,99606.66
2023-01-21T04:57:11.085Z,99589.34
2023-01-21T04:59:38.077Z,99605.84
2023-01-21T05:02:05.479Z,99605.00
2023-01-21T05:04:33.159Z,99582.34
2023-01-21T05:07:00.227Z,99583.22
2023-01-21T05:09:27.389Z,99586.66
2023-01-21T05:11:54.560Z,99581.50
2023-01-21T05:14:21.834Z,99585.00
2023-01-21T05:16:48.916Z,99576.31
2023-01-21T05:19:16.164Z,99572.88
2023-01-21T05:21:43.291Z,99583.25
2023-01-21T05:24:10.319Z,99580.66
2023-01-21T05:26:37.804Z,99572.78
2023-01-21T05:29:04.735Z,99580.75
2023-01-21T05:31:32.033Z,99599.81
2023-01-21T05:33:59.376Z,99594.66
2023-01-21T05:36:26.878Z,99584.19
2023-01-21T05:38:54.508Z,99565.84
2023-01-21T05:41:22.602Z,99568.53
2023-01-21T05:43:50.216Z,99565.06
2023-01-21T05:46:18.146Z,99571.19
2023-01-21T05:48:46.223Z,99578.13
2023-01-21T05:51:14.321Z,99597.34
2023-01-21T05:53:42.078Z,99590.25
2023-01-21T05:56:09.222Z,99596.38
2023-01-21T05:58:37.985Z,99583.34
2023-01-21T06:01:06.693Z,99582.47
2023-01-21T06:03:34.040Z,99596.41
2023-01-21T06:06:02.328Z,99584.16
2023-01-21T06:08:30.975Z,99592.88
2023-01-21T06:11:01.371Z,99591.19
2023-01-21T06:13:29.968Z,99597.19
2023-01-21T06:16:08.156Z,99586.75
2023-01-21T06:18:36.276Z,99597.19
2023-01-21T06:21:03.402Z,99600.56
2023-01-21T06:23:30.842Z,99599.69
2023-01-21T06:26:02.456Z,99606.63
2023-01-21T06:28:31.009Z,99601.41
2023-01-21T06:30:58.506Z,99606.56
2023-01-21T06:33:25.732Z,99601.25
2023-01-21T06:35:53.270Z,99602.22
2023-01-21T06:38:20.667Z,99596.88
2023-01-21T06:40:47.947Z,99602.06
2023-01-21T06:43:16.411Z,99608.25
2023-01-21T06:45:43.250Z,99611.69
2023-01-21T06:48:10.460Z,99618.53
2023-01-21T06:50:38.231Z,99614.25
2023-01-21T06:53:05.361Z,99625.53
2023-01-21T06:55:32.877Z,99633.31
2023-01-21T06:57:59.967Z,99636.81
2023-01-21T07:00:27.239Z,99640.38
2023-01-21T07:02:58.867Z,99654.25
2023-01-21T07:05:27.348Z,99651.56
2023-01-21T07:07:56.274Z,99662.03
2023-01-21T07:10:25.515Z,99661.06
2023-01-21T07:12:53.092Z,99668.31
2023-01-21T07:15:20.972Z,99668.28
2023-01-21T07:17:48.985Z,99679.53
2023-01-21T07:20:17.118Z,99681.19
2023-01-21T07:22:44.263Z,99686.31
2023-01-21T07:25:12.088Z,99687.19
2023-01-21T07:27:41.786Z,99695.91
2023-01-21T07:30:16.484Z,99691.47
2023-01-21T07:32:44.394Z,99699.22
2023-01-21T07:35:12.896Z,99706.28
2023-01-21T07:37:41.111Z,99718.47
2023-01-21T07:40:09.375Z,99729.78
2023-01-21T07:42:36.957Z,99722.88
2023-01-21T07:45:05.090Z,99724.78
2023-01-21T07:47:32.375Z,99737.88
2023-01-21T07:50:05.116Z,99732.63
2023-01-21T07:52:35.498Z,99727.47
2023-01-21T07:55:03.485Z,99739.59
2023-01-21T07:57:30.741Z,99744.06
2023-01-21T07:59:58.127Z,99733.59
2023-01-21T08:02:26.149Z,99736.09
2023-01-21T08:04:53.516Z,99744.94
2023-01-21T08:07:20.986Z,99742.22
2023-01-21T08:09:48.502Z,99743.09
2023-01-21T08:12:16.303Z,99744.78
2023-01-21T08:14:46.526Z,99747.47
2023-01-21T08:17:19.419Z,99750.22
2023-01-21T08:19:47.222Z,99750.25
2023-01-21T08:22:17.108Z,99738.22
2023-01-21T08:24:45.050Z,99766.91
2023-01-21T08:27:13.127Z,99752.91
2023-01-21T08:29:41.082Z,99759.81
2023-01-21T08:32:09.014Z,99765.94
2023-01-21T08:34:36.881Z,99765.88
2023-01-21T08:37:04.716Z,99757.16
2023-01-21T08:39:34.446Z,99763.19
2023-01-21T08:42:02.571Z,99764.06
2023-01-21T08:44:30.107Z,99779.75
2023-01-21T08:46:57.235Z,99781.47
2023-01-21T08:49:24.823Z,99794.59
2023-01-21T08:51:52.950Z,99790.19
2023-01-21T08:54:20.659Z,99783.31
2023-01-21T08:56:48.815Z,99790.31
2023-01-21T08:59:17.277Z,99811.28
2023-01-21T09:01:44.717Z,99819.09
2023-01-21T09:04:12.001Z,99818.19
2023-01-21T09:06:39.364Z,99813.88
2023-01-21T09:09:07.069Z,99828.69
2023-01-21T09:11:35.051Z,99811.34
2023-01-21T09:14:04.604Z,99804.38
2023-01-21T09:16:32.575Z,99814.78
2023-01-21T09:19:00.575Z,99808.63
2023-01-21T09:21:29.716Z,99797.25
2023-01-21T09:23:57.430Z,99784.97
2023-01-21T09:26:25.681Z,99783.22
2023-01-21T09:29:01.266Z,99778.84
2023-01-21T09:31:30.756Z,99795.22
2023-01-21T09:34:01.009Z,99781.97
2023-01-21T09:36:34.605Z,99781.03
2023-01-21T09:39:02.825Z,99786.94
2023-01-21T09:41:34.924Z,99781.59
2023-01-21T09:44:27.270Z,99767.25
2023-01-21T09:47:12.842Z,99767.03
2023-01-21T09:49:44.866Z,99759.69
2023-01-21T09:52:19.129Z,99770.19
2023-01-21T09:54:46.843Z,99761.31
2023-01-21T09:57:44.105Z,99765.78
2023-01-21T10:00:35.620Z,99778.94
2023-01-21T10:03:09.521Z,99802.59
2023-01-21T10:05:45.042Z,99780.97
2023-01-21T10:08:18.672Z,99788.13
2023-01-21T10:11:13.935Z,99774.34
2023-01-21T10:13:58.673Z,99781.41
2023-01-21T10:16:46.907Z,99772.78
2023-01-21T10:19:21.589Z,99780.59
2023-01-21T10:21:57.184Z,99770.09
2023-01-21T10:24:32.810Z,99774.56
2023-01-21T10:27:01.583Z,99769.34
2023-01-21T10:29:29.897Z,99772.88
2023-01-21T10:32:02.825Z,99772.78
2023-01-21T10:34:33.077Z,99771.13
2023-01-21T10:37:26.334Z,99767.66
2023-01-21T10:40:17.647Z,99767.69
2023-01-21T10:43:09.929Z,99786.00
2023-01-21T10:45:37.111Z,99769.53
2023-01-21T10:48:10.785Z,99777.38
2023-01-21T10:51:10.629Z,99780.09
2023-01-21T10:53:42.043Z,99776.59
2023-01-21T10:56:37.926Z,99767.97
2023-01-21T10:59:14.832Z,99762.75
2023-01-21T11:01:47.447Z,99773.19
2023-01-21T11:04:16.685Z,99769.88
2023-01-21T11:06:58.141Z,99771.56
2023-01-21T11:09:29.809Z,99764.53
2023-01-21T11:11:57.279Z,99768.47
2023-01-21T11:14:28.457Z,99774.06
2023-01-21T11:16:57.033Z,99765.69
2023-01-21T11:19:24.389Z,99764.47
2023-01-21T11:22:23.737Z,99786.81
2023-01-21T11:24:52.931Z,99767.69
2023-01-21T11:27:34.756Z,99785.19
2023-01-21T11:30:03.011Z,99781.75
2023-01-21T11:32:32.693Z,99787.97
2023-01-21T11:35:16.356Z,99798.84
2023-01-21T11:37:45.829Z,99804.88
2023-01-21T11:40:26.241Z,99797.94
2023-01-21T11:42:56.842Z,99799.66
2023-01-21T11:45:29.177Z,99791.94
2023-01-21T11:47:58.191Z,99802.56
2023-01-21T11:50:35.902Z,99807.09
2023-01-21T11:53:13.725Z,99801.94
2023-01-21T11:56:00.163Z,99800.25
2023-01-21T15:57:31.173Z,100137.22
2023-01-21T16:00:21.268Z,100139.03
2023-01-21T16:02:48.400Z,100141.78
2023-01-21T16:05:28.356Z,100130.63
2023-01-21T16:08:18.893Z,100144.59
2023-01-21T16:11:01.613Z,100155.94
2023-01-21T16:13:28.826Z,100152.50
2023-01-21T16:16:24.785Z,100154.28
2023-01-21T16:19:24.429Z,100157.75
2023-01-21T16:21:57.224Z,100167.34
2023-01-21T16:24:28.071Z,100160.38
2023-01-21T16:26:56.707Z,100170.81
2023-01-21T16:29:24.346Z,100174.28
2023-01-21T16:32:01.988Z,100180.38
2023-01-21T16:34:32.005Z,100185.59
2023-01-21T16:36:59.344Z,100191.66
2023-01-21T16:39:26.761Z,100185.56
2023-01-21T16:42:06.190Z,100187.28
2023-01-21T16:44:35.750Z,100194.22
2023-01-21T16:47:03.492Z,100199.44
2023-01-21T16:49:30.527Z,100196.84
2023-01-21T16:52:00.956Z,100199.44
2023-01-21T16:54:32.944Z,100202.03
2023-01-21T16:57:32.029Z,100215.94
2023-01-21T17:00:02.907Z,100221.16
2023-01-21T17:02:33.127Z,100226.41
2023-01-21T17:05:05.159Z,100225.53
2023-01-21T17:07:44.038Z,100233.31
2023-01-21T17:10:22.465Z,100233.31
2023-01-21T17:13:06.216Z,100241.16
2023-01-21T17:15:38.742Z,100237.69
2023-01-21T17:18:26.182Z,100235.06
2023-01-21T17:21:21.572Z,100247.28
2023-01-21T17:23:55.565Z,100247.28
2023-01-21T17:26:29.762Z,100254.22
2023-01-21T17:29:03.537Z,100252.44
2023-01-21T17:31:36.293Z,100254.22
2023-01-21T17:34:15.363Z,100262.91
2023-01-21T17:36:45.631Z,100269.03
2023-01-21T17:39:13.513Z,100267.25
2023-01-21T17:41:44.795Z,100266.41
2023-01-21T17:44:19.925Z,100273.34
2023-01-21T17:46:54.273Z,100276.78
2023-01-21T17:49:26.149Z,100283.78
2023-01-21T17:51:54.970Z,100283.75
2023-01-21T17:54:27.764Z,100289.84
2023-01-21T17:56:59.843Z,100286.38
2023-01-21T17:59:31.810Z,100284.63
2023-01-21T18:01:59.161Z,100291.59
2023-01-21T18:04:26.804Z,100286.38
2023-01-21T18:06:54.975Z,100289.81
2023-01-21T18:09:23.777Z,100301.13
2023-01-21T18:11:52.967Z,100306.38
2023-01-21T18:14:22.986Z,100308.97
2023-01-21T18:16:50.715Z,100311.59
2023-01-21T18:19:30.252Z,100311.59
2023-01-21T18:21:57.443Z,100323.81
2023-01-21T18:24:25.502Z,100324.69
2023-01-21T18:26:52.980Z,100321.19
2023-01-21T18:29:21.946Z,100322.94
2023-01-21T18:31:51.438Z,100317.69
2023-01-21T18:34:19.353Z,100323.78
2023-01-21T18:36:46.511Z,100332.50
2023-01-21T18:39:16.162Z,100336.00
2023-01-21T18:41:43.834Z,100327.28
2023-01-21T18:44:10.964Z,100331.63
2023-01-21T18:46:43.430Z,100335.09
2023-01-21T18:49:18.918Z,100339.41
2023-01-21T18:51:46.860Z,100337.69
2023-01-21T18:54:15.141Z,100341.19
2023-01-21T18:56:43.579Z,100339.41
2023-01-21T18:59:17.123Z,100346.38
2023-01-21T19:01:44.967Z,100345.53
2023-01-21T19:04:18.408Z,100357.69
2023-01-21T19:06:55.733Z,100360.31
2023-01-21T19:09:25.181Z,100356.84
2023-01-21T19:11:52.625Z,100363.78
2023-01-21T19:14:19.899Z,100366.41
2023-01-21T19:16:47.149Z,100373.38
2023-01-21T19:19:16.915Z,100369.00
2023-01-21T19:21:43.985Z,100374.22
2023-01-21T19:24:12.246Z,100377.75
2023-01-21T19:26:39.826Z,100375.09
2023-01-21T19:29:13.437Z,100380.31
2023-01-21T19:31:40.654Z,100385.53
2023-01-21T19:34:09.349Z,100383.81
2023-01-21T19:36:36.612Z,100390.78
2023-01-21T19:39:03.993Z,100396.00
2023-01-21T19:41:31.020Z,100399.50
2023-01-21T19:43:58.211Z,100399.50
2023-01-21T19:46:29.029Z,100396.88
2023-01-21T19:48:57.205Z,100397.72
2023-01-21T19:51:24.582Z,100404.69
